Cape Fear, North Carolina
Current Conditions -  °F | °C
As of 10:53 AM on Thursday 23 Oct 2014 (Local Time) from KILM Reporting Station
Clear Clear  
Wind Chill: 58°   Ceiling: Unl
Heat Index: 58°   Visibility: 10mi
Dew Point: 43°   Wind: 12mph
Humidity: 58%   Direction: 300°WNW
Pressure: 30.02"   Gusts: NA
Location:  34.2436°N, 77.9363°W
Report Text: KILM 231453Z 30010KT 10SM CLR 14/06 A3002 RMK AO2 SLP164 T01440061 50003
Loading
Personal Weather Stations






























Interactive Weather Map
Tropical Storm Tracking
New forecast layout! Learn more

10-Day Weather Forecast

Advertisements
Track Severe Weather on mobile